Login to view Products
 
Friday, March 22, 2019 (10:05 UTC)
Al Ain International Airport
ICAO: OMAL
IATA: AAN
  • METAR OMAL 221000Z 16016KT CAVOK 30/07 Q1015 NOSIG=
  • TAF OMAL 220500Z 2206/2312 11008KT 8000 FEW045 PROB30 TEMPO 2206/2213 VRB18G35KT 3000 TSRA BLDU FEW040CB BECMG 2212/2214 07010KT PROB30 TEMPO 2220/2306 VRB20G35KT 3000 TSRA BLDU FEW040CB BECMG 2222/2300 15016KT=
D:\Input Parser\Destinations\Final\05\OMALL0612050044771126.txt
1